Time;durP1;ratioP1;P1;durP2;ratioP2;P2;SDS_P1;SDS_P2;PMS_P1;PMS_P2;Temp;Humidity;BMP_temperature;BMP_pressure;BME280_temperature;BME280_humidity;BME280_pressure;Samples;Min_cycle;Max_cycle;Signal;HPM_P1;HPM_P2
2022/02/02 00:02:13;;;;;;;30.33;6.83;;;;;;;6.37;86.02;100311.56;5072567;28;20234;-74
2022/02/02 00:04:45;;;;;;;34.47;7.07;;;;;;;6.34;86.22;100314.88;5072346;28;20209;-74
2022/02/02 00:09:56;;;;;;;36.57;7.27;;;;;;;6.28;86.64;100308.78;5072108;28;20221;-74
2022/02/02 00:17:32;;;;;;;43.83;8.03;;;;;;;6.31;86.44;100319.88;5072206;28;20207;-74
2022/02/02 00:22:44;;;;;;;42.67;8.13;;;;;;;6.42;84.30;100315.97;5070451;28;20206;-74
2022/02/02 00:25:15;;;;;;;42.40;9.33;;;;;;;6.42;84.51;100310.88;5054052;28;20621;-74
2022/02/02 00:27:43;;;;;;;47.10;9.30;;;;;;;6.45;83.77;100315.19;5070665;28;20189;-74
2022/02/02 00:30:13;;;;;;;41.00;7.80;;;;;;;6.51;83.06;100308.59;5071775;28;20620;-74
2022/02/02 00:35:43;;;;;;;46.37;9.00;;;;;;;6.59;82.36;100303.69;5029210;28;20317;-74
2022/02/02 00:38:08;;;;;;;51.77;9.30;;;;;;;6.63;81.36;100318.22;5059106;28;20205;-74
2022/02/02 00:40:34;;;;;;;55.50;9.27;;;;;;;6.68;79.56;100296.31;5070504;28;20208;-74
2022/02/02 00:42:59;;;;;;;44.50;8.70;;;;;;;6.69;79.86;100311.63;5071961;28;20654;-74
2022/02/02 00:45:31;;;;;;;37.93;7.80;;;;;;;6.71;79.84;100311.63;5071839;28;20259;-74
2022/02/02 00:47:57;;;;;;;49.00;7.90;;;;;;;6.70;78.93;100320.09;5070731;28;20177;-74
2022/02/02 00:50:24;;;;;;;36.97;8.33;;;;;;;6.69;79.51;100334.50;5071849;28;20232;-74
2022/02/02 00:52:52;;;;;;;42.53;7.93;;;;;;;6.68;79.61;100329.38;5071547;28;20228;-74
2022/02/02 00:55:19;;;;;;;38.47;8.23;;;;;;;6.66;80.26;100326.78;5071841;28;20189;-74
2022/02/02 00:57:44;;;;;;;44.53;9.13;;;;;;;6.69;79.92;100319.25;5071813;28;20181;-74
2022/02/02 01:00:10;;;;;;;44.40;8.17;;;;;;;6.70;79.57;100340.44;5071342;28;20710;-74
2022/02/02 01:02:35;;;;;;;40.50;8.43;;;;;;;6.64;79.68;100313.16;5071634;28;20658;-74
2022/02/02 01:05:00;;;;;;;41.90;7.23;;;;;;;6.56;79.47;100349.38;5070151;28;20725;-74
2022/02/02 01:10:26;;;;;;;19.97;5.47;;;;;;;6.44;79.49;100361.78;5070264;28;20205;-74
2022/02/02 01:16:24;;;;;;;29.13;5.70;;;;;;;6.26;80.94;100346.84;5070986;28;20180;-74
2022/02/02 01:18:27;;;;;;;29.30;6.47;;;;;;;6.27;81.64;100348.56;5070754;28;20227;-74
2022/02/02 01:28:32;;;;;;;34.43;7.00;;;;;;;6.22;81.98;100378.09;5070623;28;20220;-74
2022/02/02 01:30:59;;;;;;;39.57;7.27;;;;;;;6.27;82.60;100381.63;5070702;28;20568;-74
2022/02/02 01:33:24;;;;;;;43.70;7.07;;;;;;;6.29;82.32;100379.13;5070691;28;20185;-74
2022/02/02 01:35:50;;;;;;;34.60;7.60;;;;;;;6.27;82.30;100376.53;5070558;28;20305;-74
2022/02/02 01:38:16;;;;;;;44.97;9.03;;;;;;;6.27;82.78;100386.69;5070342;28;20567;-74
2022/02/02 01:40:46;;;;;;;42.80;8.40;;;;;;;6.31;81.32;100380.88;5070483;28;20280;-74
2022/02/02 01:43:18;;;;;;;42.73;8.60;;;;;;;6.31;83.09;100393.59;5070555;28;20184;-74
2022/02/02 01:46:29;;;;;;;37.80;8.77;;;;;;;6.32;82.37;100381.75;5069106;28;20201;-74
2022/02/02 01:48:47;;;;;;;39.83;8.23;;;;;;;6.32;82.15;100381.75;5064337;28;20276;-74
2022/02/02 01:56:51;;;;;;;34.43;7.57;;;;;;;6.40;81.52;100370.13;5027937;28;20237;-74
2022/02/02 01:59:31;;;;;;;36.90;7.17;;;;;;;6.41;80.54;100384.56;5060113;28;20261;-74
2022/02/02 02:01:57;;;;;;;39.30;8.00;;;;;;;6.45;79.42;100399.94;5052394;28;20201;-74
2022/02/02 02:04:22;;;;;;;39.20;7.23;;;;;;;6.41;79.35;100382.03;5070130;28;20209;-74
2022/02/02 02:06:47;;;;;;;39.57;7.03;;;;;;;6.38;79.38;100390.44;5070180;28;20188;-74
2022/02/02 02:09:13;;;;;;;31.57;7.20;;;;;;;6.37;79.07;100398.00;5070026;28;20212;-74
2022/02/02 02:11:43;;;;;;;30.87;6.80;;;;;;;6.37;79.28;100393.81;5070039;28;20193;-74
2022/02/02 02:16:34;;;;;;;38.23;6.50;;;;;;;6.33;79.80;100404.69;5069913;28;20181;-74
2022/02/02 02:18:59;;;;;;;29.67;6.27;;;;;;;6.33;79.18;100404.69;5069622;28;20204;-74
2022/02/02 02:21:26;;;;;;;33.23;6.97;;;;;;;6.35;79.53;100397.13;5068492;28;20185;-73
2022/02/02 02:23:51;;;;;;;30.40;6.60;;;;;;;6.34;79.47;100408.94;5068376;28;20205;-74
2022/02/02 02:26:26;;;;;;;33.40;6.23;;;;;;;6.35;78.83;100425.09;5068521;28;20768;-74
2022/02/02 02:29:15;;;;;;;31.73;6.10;;;;;;;6.34;79.26;100415.69;5068360;28;20283;-74
2022/02/02 02:35:01;;;;;;;28.33;5.53;;;;;;;6.26;79.23;100412.94;5069745;28;20170;-74
2022/02/02 02:56:20;;;;;;;24.03;4.93;;;;;;;6.21;78.58;100447.53;5069850;28;20173;-74
2022/02/02 02:59:05;;;;;;;25.03;5.70;;;;;;;6.22;78.47;100428.91;5069447;28;20188;-74
2022/02/02 03:02:04;;;;;;;34.80;5.73;;;;;;;6.21;78.49;100452.63;5069709;28;20197;-74
2022/02/02 03:35:04;;;;;;;28.73;6.27;;;;;;;6.21;78.30;100450.06;5053287;28;20205;-74
2022/02/02 03:51:21;;;;;;;34.30;6.30;;;;;;;6.16;79.84;100466.88;5072716;28;20208;-74
2022/02/02 03:54:25;;;;;;;41.73;7.47;;;;;;;6.19;79.34;100464.44;5072468;28;21024;-74
2022/02/02 04:00:14;;;;;;;34.13;6.83;;;;;;;6.19;80.24;100472.06;5072311;28;20215;-74
2022/02/02 04:02:49;;;;;;;34.93;6.20;;;;;;;6.22;79.95;100478.91;5072296;28;20192;-74
2022/02/02 04:07:47;;;;;;;35.57;6.60;;;;;;;6.24;79.41;100495.06;5072463;28;20189;-73
2022/02/02 04:10:12;;;;;;;32.07;7.27;;;;;;;6.24;79.40;100493.41;5070816;28;20712;-74
2022/02/02 04:16:36;;;;;;;27.30;5.83;;;;;;;6.25;79.55;100484.06;5070862;28;20230;-74
2022/02/02 04:59:30;;;;;;;29.73;5.20;;;;;;;6.30;79.72;100530.81;5071098;28;20682;-74
2022/02/02 05:02:35;;;;;;;21.13;4.97;;;;;;;6.30;79.40;100538.44;5070025;28;20227;-74
2022/02/02 05:05:15;;;;;;;25.33;5.23;;;;;;;6.28;79.97;100551.16;5071056;28;20221;-74
2022/02/02 05:10:14;;;;;;;23.07;4.90;;;;;;;6.20;80.69;100542.41;5071023;28;20299;-74
2022/02/02 05:18:11;;;;;;;24.60;4.63;;;;;;;6.19;81.78;100560.16;5071128;28;20177;-74
2022/02/02 05:41:00;;;;;;;30.90;5.63;;;;;;;6.05;85.00;100590.22;5070583;28;20199;-74
2022/02/02 05:50:54;;;;;;;28.23;5.33;;;;;;;6.05;83.50;100602.91;5070520;28;20223;-74
2022/02/02 05:53:21;;;;;;;23.03;3.90;;;;;;;6.09;82.90;100597.13;5070303;28;20183;-74
2022/02/02 05:55:48;;;;;;;21.27;4.97;;;;;;;6.06;82.89;100617.34;5070187;28;20208;-74
2022/02/02 05:58:14;;;;;;;17.77;4.13;;;;;;;6.10;82.99;100618.31;5068611;28;20196;-74
2022/02/02 06:00:41;;;;;;;26.43;5.30;;;;;;;6.14;81.99;100645.56;5068746;28;20220;-74
2022/02/02 06:03:14;;;;;;;25.03;4.83;;;;;;;6.13;82.70;100654.00;5070211;28;20654;-74
2022/02/02 06:05:41;;;;;;;20.23;5.20;;;;;;;6.17;81.92;100661.75;5070115;28;20205;-74
2022/02/02 06:08:11;;;;;;;23.33;4.97;;;;;;;6.14;82.36;100659.13;5068733;28;20182;-74
2022/02/02 06:10:38;;;;;;;20.47;4.57;;;;;;;6.11;82.45;100651.41;5070046;28;20291;-73
2022/02/02 06:13:04;;;;;;;19.33;4.07;;;;;;;6.11;81.83;100659.03;5069985;28;20192;-74
2022/02/02 06:15:29;;;;;;;24.63;4.40;;;;;;;6.11;81.75;100651.41;5069884;28;20177;-73
2022/02/02 06:17:55;;;;;;;12.47;3.70;;;;;;;6.11;81.26;100661.56;5068719;28;20181;-73
2022/02/02 06:20:21;;;;;;;17.17;4.27;;;;;;;6.10;81.22;100670.00;5069731;28;20213;-74
2022/02/02 06:22:50;;;;;;;21.17;4.27;;;;;;;6.08;81.88;100688.56;5069814;28;20199;-74
2022/02/02 06:25:28;;;;;;;18.13;4.43;;;;;;;6.05;82.12;100685.91;5069662;28;20217;-74
2022/02/02 06:28:09;;;;;;;18.93;3.67;;;;;;;6.06;81.50;100711.38;5069684;28;20200;-74
2022/02/02 06:30:34;;;;;;;17.57;4.00;;;;;;;6.05;81.16;100708.78;5069694;28;20213;-74
2022/02/02 06:33:09;;;;;;;20.50;3.30;;;;;;;6.07;80.79;100699.50;5069727;28;20189;-74
2022/02/02 06:35:35;;;;;;;17.37;3.53;;;;;;;6.04;80.87;100710.44;5068331;28;20184;-74
2022/02/02 06:38:01;;;;;;;20.70;3.60;;;;;;;6.04;80.46;100699.44;5068224;28;20561;-74
2022/02/02 06:40:28;;;;;;;20.23;3.50;;;;;;;6.05;80.68;100735.06;5069679;28;20244;-74
2022/02/02 06:42:54;;;;;;;17.97;3.03;;;;;;;6.02;80.26;100737.47;5069705;28;20650;-74
2022/02/02 06:45:19;;;;;;;18.30;3.53;;;;;;;6.00;80.27;100736.56;5068669;28;20261;-74
2022/02/02 06:47:46;;;;;;;12.90;2.90;;;;;;;5.99;80.30;100746.69;5069735;28;20189;-74
2022/02/02 06:53:03;;;;;;;18.13;3.93;;;;;;;6.01;80.76;100755.22;5069672;28;20696;-74
2022/02/02 06:55:36;;;;;;;16.37;2.97;;;;;;;6.00;80.66;100764.53;5069880;28;20586;-74
2022/02/02 06:58:21;;;;;;;13.67;3.53;;;;;;;6.00;80.49;100782.31;5067879;28;20189;-74
2022/02/02 07:01:05;;;;;;;20.27;3.40;;;;;;;5.98;79.46;100776.28;5069447;28;20587;-74
2022/02/02 07:04:05;;;;;;;11.87;3.50;;;;;;;5.97;80.11;100777.13;5069502;28;20184;-74
2022/02/02 07:09:30;;;;;;;13.77;3.60;;;;;;;6.34;79.42;100827.59;5073290;28;20192;-76
2022/02/02 07:12:16;;;;;;;17.77;3.63;;;;;;;6.09;78.41;100830.06;5072303;28;20192;-74
2022/02/02 07:18:10;;;;;;;16.10;3.73;;;;;;;6.05;78.44;100828.22;5014150;28;20228;-74
2022/02/02 07:20:55;;;;;;;18.40;3.90;;;;;;;6.07;77.98;100834.22;5030598;28;20226;-74
2022/02/02 07:26:17;;;;;;;24.80;4.70;;;;;;;6.04;78.57;100859.53;5073056;28;20220;-74
2022/02/02 07:31:29;;;;;;;19.23;3.83;;;;;;;6.08;79.31;100869.84;5071736;28;20674;-74
2022/02/02 07:34:13;;;;;;;22.03;4.10;;;;;;;6.03;78.82;100858.66;5072917;28;20196;-74
2022/02/02 07:36:43;;;;;;;19.93;3.20;;;;;;;6.05;79.43;100873.97;5071732;28;20193;-74
2022/02/02 07:39:12;;;;;;;21.23;3.90;;;;;;;6.03;79.15;100875.59;5072756;28;20189;-74
2022/02/02 07:41:43;;;;;;;22.97;3.80;;;;;;;6.03;79.91;100888.28;5073109;28;20204;-74
2022/02/02 07:44:19;;;;;;;22.17;4.13;;;;;;;6.03;79.77;100893.38;5071591;28;20201;-74
2022/02/02 07:46:48;;;;;;;23.80;4.13;;;;;;;5.99;80.06;100886.44;5071682;28;20268;-74
2022/02/02 07:49:22;;;;;;;23.87;4.50;;;;;;;6.01;79.65;100897.50;5072630;28;20224;-74
2022/02/02 07:51:51;;;;;;;23.07;4.20;;;;;;;6.03;80.89;100903.53;5071192;28;20562;-74
2022/02/02 07:54:23;;;;;;;23.03;4.67;;;;;;;6.07;80.76;100901.16;5072691;28;20272;-74
2022/02/02 07:56:49;;;;;;;23.97;4.13;;;;;;;6.17;79.84;100904.94;5071433;28;20181;-74
2022/02/02 07:59:40;;;;;;;24.90;4.67;;;;;;;6.19;79.93;100896.56;5072455;28;20254;-74
2022/02/02 08:02:06;;;;;;;23.50;3.97;;;;;;;6.20;79.32;100892.31;5072735;28;20173;-74
2022/02/02 08:04:32;;;;;;;17.03;4.33;;;;;;;6.22;80.03;100909.34;5072726;28;20295;-74
2022/02/02 08:06:58;;;;;;;22.33;4.80;;;;;;;6.28;79.84;100912.16;5072638;28;20267;-74
2022/02/02 08:09:30;;;;;;;26.10;5.67;;;;;;;6.23;79.25;100915.31;5072299;28;20216;-74
2022/02/02 08:11:56;;;;;;;20.27;3.90;;;;;;;6.24;79.33;100920.47;5072550;28;20185;-74
2022/02/02 08:14:23;;;;;;;22.07;4.50;;;;;;;6.26;78.62;100918.00;5072497;28;20205;-74
2022/02/02 08:16:49;;;;;;;20.20;4.40;;;;;;;6.25;78.16;100939.09;5070912;28;20661;-74
2022/02/02 08:19:16;;;;;;;17.80;3.80;;;;;;;6.25;78.29;100956.91;5070448;28;20212;-74
2022/02/02 08:21:42;;;;;;;20.50;4.40;;;;;;;6.28;77.73;100973.16;5070896;28;20287;-74
2022/02/02 08:24:09;;;;;;;17.77;4.00;;;;;;;6.25;78.23;100975.56;5072130;28;20233;-74
2022/02/02 08:26:34;;;;;;;19.57;3.87;;;;;;;6.23;77.28;100968.72;5072020;28;20181;-74
2022/02/02 08:29:00;;;;;;;21.77;5.00;;;;;;;6.24;77.70;100978.94;5071787;28;20238;-74
2022/02/02 08:31:27;;;;;;;19.10;4.17;;;;;;;6.29;77.13;100985.06;5070851;28;20184;-74
2022/02/02 08:33:57;;;;;;;22.07;4.30;;;;;;;6.34;76.73;100992.84;5072016;28;20195;-74
2022/02/02 08:36:22;;;;;;;17.73;4.23;;;;;;;6.32;76.72;100991.94;5072203;28;20201;-74
2022/02/02 08:41:36;;;;;;;17.37;3.63;;;;;;;6.40;75.22;100983.78;5072263;28;20181;-74
2022/02/02 08:44:10;;;;;;;23.23;5.03;;;;;;;6.43;75.75;101013.53;5071698;28;20201;-74
2022/02/02 08:46:43;;;;;;;21.47;4.37;;;;;;;6.50;74.49;101016.38;5071787;28;20181;-74
2022/02/02 08:49:12;;;;;;;14.90;3.73;;;;;;;6.64;74.65;101007.59;5071482;28;20181;-74
2022/02/02 08:51:41;;;;;;;20.97;4.30;;;;;;;6.81;73.32;101029.44;5070416;28;20187;-74
2022/02/02 08:54:18;;;;;;;30.27;4.13;;;;;;;6.80;73.27;101026.84;5071348;28;20185;-74
2022/02/02 08:57:11;;;;;;;20.30;4.40;;;;;;;6.78;74.29;101028.47;5070362;28;20189;-74
2022/02/02 09:02:05;;;;;;;22.73;5.03;;;;;;;6.68;74.35;101023.84;5071565;28;20189;-74
2022/02/02 09:07:15;;;;;;;17.80;3.77;;;;;;;6.96;73.15;101030.00;5071536;28;20177;-74
2022/02/02 09:21:21;;;;;;;17.00;3.83;;;;;;;8.97;65.31;101046.94;5071562;28;20213;-74
2022/02/02 09:34:18;;;;;;;19.17;5.27;;;;;;;10.32;61.22;101035.22;5048218;28;20194;-72
2022/02/02 09:36:45;;;;;;;17.80;3.70;;;;;;;9.97;62.50;101041.16;5014990;28;20563;-72
2022/02/02 09:39:19;;;;;;;17.00;4.07;;;;;;;9.43;61.17;101057.63;5058610;28;20228;-72
2022/02/02 09:41:48;;;;;;;19.43;3.87;;;;;;;9.32;62.58;101061.59;5069442;28;20177;-72
2022/02/02 09:44:19;;;;;;;18.97;4.17;;;;;;;13.81;50.50;101047.09;5070552;28;20212;-73
2022/02/02 09:49:20;;;;;;;15.97;3.97;;;;;;;14.74;46.17;101047.00;5070222;28;20204;-73
2022/02/02 09:51:52;;;;;;;20.03;4.30;;;;;;;12.68;48.65;101079.09;5070261;28;20175;-73
2022/02/02 09:54:26;;;;;;;19.17;4.27;;;;;;;14.71;46.69;101067.59;5070467;28;20185;-72
2022/02/02 10:05:14;;;;;;;20.20;3.80;;;;;;;13.18;48.24;101105.56;5070143;28;20221;-73
2022/02/02 10:15:28;;;;;;;23.10;4.60;;;;;;;9.23;60.00;101144.75;5068684;28;20188;-73
2022/02/02 10:17:56;;;;;;;18.00;3.70;;;;;;;10.75;55.69;101149.75;5069947;28;20242;-73
2022/02/02 10:20:24;;;;;;;21.20;4.10;;;;;;;9.29;59.95;101167.94;5069991;28;20729;-72
2022/02/02 10:22:51;;;;;;;15.97;3.50;;;;;;;8.94;61.43;101181.34;5069921;28;20669;-73
2022/02/02 10:25:37;;;;;;;16.67;3.33;;;;;;;8.50;61.93;101195.22;5069525;28;20216;-72
2022/02/02 10:28:14;;;;;;;18.90;3.43;;;;;;;8.17;62.78;101188.97;5069757;28;20650;-73
2022/02/02 10:30:43;;;;;;;17.10;3.37;;;;;;;8.13;62.58;101197.31;5068530;28;20281;-72
2022/02/02 10:33:19;;;;;;;15.20;3.53;;;;;;;8.03;64.18;101210.56;5070157;28;20184;-72
2022/02/02 10:35:49;;;;;;;14.93;3.23;;;;;;;8.06;64.00;101222.56;5069860;28;20185;-72
2022/02/02 10:38:21;;;;;;;18.20;3.37;;;;;;;7.95;64.14;101231.50;5069533;28;20735;-72
2022/02/02 10:40:55;;;;;;;16.63;3.60;;;;;;;7.75;65.49;101238.44;5068321;28;20279;-73
2022/02/02 10:43:22;;;;;;;16.33;3.73;;;;;;;7.70;64.67;101228.88;5068855;28;20657;-72
2022/02/02 10:45:48;;;;;;;23.17;4.60;;;;;;;7.61;66.08;101229.38;5069534;28;20746;-72
2022/02/02 10:48:47;;;;;;;15.23;2.73;;;;;;;7.53;65.81;101232.47;5068119;28;20283;-72
2022/02/02 10:51:16;;;;;;;15.93;3.20;;;;;;;7.66;65.84;101239.78;5067733;28;20784;-73
2022/02/02 10:54:04;;;;;;;12.53;3.03;;;;;;;7.75;64.27;101238.44;5069255;28;20838;-72
2022/02/02 10:56:48;;;;;;;15.07;4.07;;;;;;;8.46;61.10;101236.78;5068183;28;20744;-73
2022/02/02 10:59:27;;;;;;;14.73;3.70;;;;;;;8.26;62.38;101219.03;5069268;28;20213;-73
2022/02/02 11:07:16;;;;;;;12.17;2.83;;;;;;;9.56;58.29;101250.53;5069338;28;20654;-73
2022/02/02 11:09:44;;;;;;;12.07;2.50;;;;;;;9.17;59.04;101245.06;5067688;28;20216;-73
2022/02/02 11:12:11;;;;;;;12.00;2.97;;;;;;;9.40;58.21;101250.91;5067956;28;20239;-72
2022/02/02 11:14:55;;;;;;;13.73;2.97;;;;;;;9.32;56.38;101252.34;5069417;28;20660;-73
2022/02/02 11:17:28;;;;;;;15.93;2.70;;;;;;;10.22;55.18;101258.47;5069215;28;20260;-72
2022/02/02 11:19:58;;;;;;;15.70;3.20;;;;;;;9.16;56.79;101271.44;5068888;28;20295;-73
2022/02/02 11:22:31;;;;;;;15.03;2.70;;;;;;;8.91;58.94;101273.16;5069444;28;20211;-72
2022/02/02 11:25:03;;;;;;;14.43;3.20;;;;;;;8.63;59.22;101273.94;5067367;28;20215;-72
2022/02/02 11:27:39;;;;;;;13.87;3.23;;;;;;;9.73;57.20;101277.47;5069193;28;20178;-73
2022/02/02 11:30:06;;;;;;;10.37;2.50;;;;;;;10.07;54.19;101286.19;5067616;28;20208;-72
2022/02/02 11:32:43;;;;;;;13.13;2.80;;;;;;;9.62;56.48;101291.59;5069058;28;20280;-72
2022/02/02 11:35:30;;;;;;;7.50;2.33;;;;;;;13.92;45.53;101279.78;5069184;28;20192;-73
2022/02/02 11:37:59;;;;;;;8.07;2.53;;;;;;;15.15;42.43;101285.41;5068844;28;20192;-73
2022/02/02 11:40:25;;;;;;;10.10;2.83;;;;;;;10.57;51.73;101297.81;5069078;28;20201;-72
2022/02/02 11:42:58;;;;;;;15.10;3.23;;;;;;;11.01;51.86;101308.38;5069235;28;20604;-72
2022/02/02 11:45:51;;;;;;;9.20;2.30;;;;;;;9.32;57.42;101317.13;5069234;28;20223;-72
2022/02/02 11:48:44;;;;;;;12.40;4.03;;;;;;;9.30;56.71;101320.44;5067885;28;20192;-72
2022/02/02 11:51:09;;;;;;;11.40;2.73;;;;;;;12.38;49.57;101321.75;5068926;28;20228;-73
2022/02/02 11:53:53;;;;;;;11.03;2.90;;;;;;;11.06;50.67;101326.44;5068238;28;20329;-73
2022/02/02 11:56:19;;;;;;;9.47;2.57;;;;;;;10.40;54.87;101340.88;5071388;28;20704;-72
2022/02/02 11:58:45;;;;;;;8.90;3.00;;;;;;;10.09;53.37;101332.31;5071223;28;20193;-73
2022/02/02 12:01:20;;;;;;;11.97;3.10;;;;;;;9.27;56.78;101333.97;5072439;28;20203;-73
2022/02/02 12:04:16;;;;;;;11.60;3.43;;;;;;;8.75;58.53;101344.97;5072498;28;20165;-72
2022/02/02 12:06:56;;;;;;;13.87;2.53;;;;;;;8.99;59.10;101338.97;5072158;28;20201;-72
2022/02/02 12:09:37;;;;;;;14.40;3.77;;;;;;;11.75;51.71;101334.13;5070929;28;20232;-72
2022/02/02 12:58:05;;;;;;;12.40;2.63;;;;;;;11.21;51.28;101396.03;5071587;28;20208;-73
2022/02/02 13:03:10;;;;;;;11.03;3.40;;;;;;;14.47;43.91;101390.44;5071507;28;20189;-73
2022/02/02 13:05:38;;;;;;;8.27;2.63;;;;;;;15.01;42.32;101395.34;5070245;28;20213;-73
2022/02/02 13:08:04;;;;;;;11.50;2.63;;;;;;;11.87;48.55;101406.25;5071061;28;20630;-72
2022/02/02 13:10:33;;;;;;;10.83;2.70;;;;;;;9.85;55.58;101436.38;5053126;28;20209;-72
2022/02/02 13:13:14;;;;;;;11.30;2.43;;;;;;;8.86;59.42;101436.44;5071294;28;20193;-72
2022/02/02 13:15:51;;;;;;;13.87;2.43;;;;;;;8.54;61.30;101428.44;5071225;28;20181;-72
2022/02/02 13:18:28;;;;;;;13.50;3.00;;;;;;;8.73;60.88;101446.16;5069591;28;20233;-72
2022/02/02 13:26:06;;;;;;;9.27;2.97;;;;;;;14.90;44.95;101423.59;5069668;28;20216;-73
2022/02/02 13:28:51;;;;;;;7.37;2.00;;;;;;;12.12;50.02;101435.91;5070806;28;20185;-72
2022/02/02 13:31:43;;;;;;;10.23;2.27;;;;;;;9.66;55.25;101445.19;5071200;28;20731;-72
2022/02/02 13:35:13;;;;;;;13.13;2.70;;;;;;;8.89;58.24;101440.78;5070823;28;20196;-72
2022/02/02 13:56:46;;;;;;;8.50;1.60;;;;;;;8.10;58.61;101487.94;5070381;28;20185;-72
2022/02/02 14:04:27;;;;;;;9.00;2.03;;;;;;;7.84;62.75;101497.91;5068812;28;20584;-72
2022/02/02 14:07:08;;;;;;;10.53;2.60;;;;;;;10.17;57.03;101502.25;5070230;28;20173;-72
2022/02/02 14:10:05;;;;;;;10.13;2.63;;;;;;;12.58;50.90;101498.59;5068760;28;20689;-73
2022/02/02 14:31:36;;;;;;;15.97;3.03;;;;;;;7.69;68.41;101594.16;5069835;28;20193;-72
2022/02/02 14:34:01;;;;;;;11.77;2.43;;;;;;;7.59;69.97;101603.06;5069814;28;20278;-72
2022/02/02 14:36:32;;;;;;;13.00;2.30;;;;;;;8.88;66.56;101598.25;5069759;28;20666;-73
2022/02/02 14:39:10;;;;;;;10.00;2.30;;;;;;;9.60;64.52;101611.19;5069416;28;20570;-73
2022/02/02 14:41:41;;;;;;;12.30;2.73;;;;;;;9.56;64.46;101601.66;5069630;28;20223;-73
2022/02/02 14:44:14;;;;;;;11.93;2.07;;;;;;;9.06;66.82;101603.16;5069692;28;20200;-72
2022/02/02 14:46:51;;;;;;;10.57;2.07;;;;;;;10.30;62.34;101606.78;5068361;28;20212;-72
2022/02/02 14:49:25;;;;;;;6.80;2.13;;;;;;;9.38;66.49;101600.09;5069566;28;20273;-73
2022/02/02 14:52:07;;;;;;;9.47;2.50;;;;;;;8.25;69.58;101613.56;5069682;28;20277;-72
2022/02/02 15:05:55;;;;;;;10.07;2.83;;;;;;;7.53;70.50;101643.56;5069276;28;20228;-72
2022/02/02 15:27:19;;;;;;;13.47;3.33;;;;;;;6.35;74.78;101663.41;5069395;28;20258;-73
2022/02/02 15:32:14;;;;;;;12.47;2.80;;;;;;;6.01;76.60;101683.72;5073656;28;20642;-73
2022/02/02 15:34:49;;;;;;;7.60;1.90;;;;;;;5.96;75.44;101682.63;5073180;28;20268;-73
2022/02/02 15:37:24;;;;;;;11.03;2.20;;;;;;;5.94;75.92;101686.72;5072060;28;20169;-72
2022/02/02 15:39:59;;;;;;;9.97;2.00;;;;;;;5.92;75.72;101695.06;5072815;28;20291;-73
2022/02/02 15:58:39;;;;;;;8.43;2.13;;;;;;;5.46;75.17;101736.59;5052723;28;20201;-73
2022/02/02 16:03:48;;;;;;;10.43;1.87;;;;;;;5.39;75.85;101753.16;5072499;28;20264;-72
2022/02/02 16:06:20;;;;;;;10.17;2.00;;;;;;;5.36;76.04;101757.22;5072514;28;20773;-72
2022/02/02 16:08:48;;;;;;;11.70;2.37;;;;;;;5.28;76.45;101755.91;5072379;28;20725;-72
2022/02/02 16:13:49;;;;;;;11.27;2.30;;;;;;;5.19;76.30;101747.78;5072676;28;20711;-73
2022/02/02 16:16:40;;;;;;;11.87;2.50;;;;;;;5.15;76.16;101769.59;5072259;28;20177;-74
2022/02/02 16:19:07;;;;;;;12.20;2.80;;;;;;;5.09;76.64;101770.91;5071726;28;20208;-73
2022/02/02 16:32:57;;;;;;;14.50;2.67;;;;;;;5.00;76.68;101786.53;5072371;28;20185;-75
2022/02/02 16:37:57;;;;;;;14.13;2.93;;;;;;;4.99;76.96;101801.66;5072051;28;20254;-72
2022/02/02 16:40:31;;;;;;;12.67;2.40;;;;;;;4.96;77.47;101799.81;5071866;28;20287;-75
2022/02/02 16:45:38;;;;;;;10.17;2.57;;;;;;;4.90;78.08;101807.09;5070356;28;20223;-74
2022/02/02 16:48:04;;;;;;;15.10;3.30;;;;;;;4.95;78.00;101805.69;5071597;28;20563;-75
2022/02/02 16:50:34;;;;;;;14.33;2.50;;;;;;;4.91;78.26;101821.53;5071806;28;20213;-74
2022/02/02 16:53:05;;;;;;;22.03;3.93;;;;;;;4.90;78.57;101823.97;5071648;28;20712;-75
2022/02/02 16:55:46;;;;;;;17.60;3.10;;;;;;;4.87;78.88;101829.75;5070268;28;20178;-75
2022/02/02 17:24:20;;;;;;;17.40;3.07;;;;;;;4.84;78.94;101832.09;5070053;28;20189;-74
2022/02/02 17:31:05;;;;;;;13.07;3.50;;;;;;;4.60;80.80;101863.63;5069485;28;20213;-75
2022/02/02 17:33:39;;;;;;;19.07;3.67;;;;;;;4.65;80.98;101874.06;5070943;28;20676;-74
2022/02/02 17:36:25;;;;;;;19.70;4.73;;;;;;;4.57;81.60;101876.16;5071018;28;20174;-75
2022/02/02 17:38:57;;;;;;;18.67;3.07;;;;;;;4.56;81.51;101883.66;5070711;28;20234;-74
2022/02/02 17:41:41;;;;;;;16.97;3.70;;;;;;;4.57;81.85;101883.75;5070574;28;20173;-74
2022/02/02 17:44:19;;;;;;;19.60;3.80;;;;;;;4.53;81.92;101888.53;5069561;28;20189;-75
2022/02/02 18:01:06;;;;;;;24.37;4.30;;;;;;;4.38;83.21;101918.06;5068873;28;20785;-74
2022/02/02 18:17:57;;;;;;;20.53;3.43;;;;;;;4.13;83.57;101928.34;5069944;28;20227;-74
2022/02/02 18:19:50;;;;;;;22.93;4.00;;;;;;;4.12;83.92;101926.59;5069447;28;20722;-74
2022/02/02 18:22:16;;;;;;;16.53;3.13;;;;;;;4.09;83.92;101928.91;5068643;28;20192;-74
2022/02/02 18:24:57;;;;;;;17.70;3.40;;;;;;;4.03;84.32;101933.63;5069512;28;20267;-74
2022/02/02 18:27:31;;;;;;;18.30;3.83;;;;;;;4.04;84.03;101942.06;5069829;28;20192;-74
2022/02/02 18:30:12;;;;;;;18.50;3.20;;;;;;;4.04;84.26;101948.03;5069657;28;20205;-74
2022/02/02 18:32:59;;;;;;;19.20;3.93;;;;;;;4.03;84.14;101951.34;5069882;28;20173;-74
2022/02/02 18:35:30;;;;;;;14.70;3.47;;;;;;;4.01;83.77;101957.97;5069919;28;20169;-74
2022/02/02 18:49:04;;;;;;;18.90;3.40;;;;;;;3.86;84.43;101944.34;5069447;28;20231;-74
2022/02/02 18:56:55;;;;;;;16.87;3.10;;;;;;;3.75;85.04;101964.69;5069547;28;20180;-74
2022/02/02 18:59:39;;;;;;;14.63;3.10;;;;;;;3.75;84.93;101957.97;5068198;28;20270;-74
2022/02/02 19:02:17;;;;;;;20.20;4.37;;;;;;;3.74;84.59;101966.38;5069780;28;20242;-74
2022/02/02 19:05:04;;;;;;;16.23;3.27;;;;;;;3.72;84.28;101962.84;5068726;28;20374;-74
2022/02/02 19:07:59;;;;;;;21.23;3.40;;;;;;;3.72;84.91;101957.78;5069604;28;20230;-74
2022/02/02 19:57:09;;;;;;;16.87;4.47;;;;;;;3.16;85.23;101944.72;5068980;28;20605;-74
2022/02/02 20:05:21;;;;;;;19.23;4.17;;;;;;;3.04;85.26;101951.53;5068886;28;20217;-74
2022/02/02 20:11:00;;;;;;;16.83;3.67;;;;;;;2.98;85.70;101949.44;5069008;28;20212;-74
2022/02/02 20:13:26;;;;;;;19.10;3.90;;;;;;;2.97;86.34;101954.41;5067738;28;20615;-74
2022/02/02 20:15:51;;;;;;;25.10;4.00;;;;;;;2.91;86.14;101957.44;5071867;28;20177;-74
2022/02/02 20:18:16;;;;;;;21.90;4.43;;;;;;;2.89;86.42;101958.94;5071089;28;20250;-74
2022/02/02 20:20:44;;;;;;;17.50;3.90;;;;;;;2.80;86.49;101955.81;5071082;28;20686;-74
2022/02/02 20:23:10;;;;;;;26.83;4.60;;;;;;;2.80;86.60;101957.47;5071986;28;20594;-74
2022/02/02 20:25:37;;;;;;;17.27;3.50;;;;;;;2.68;85.75;101949.94;5072258;28;20205;-74
2022/02/02 20:28:05;;;;;;;14.13;3.73;;;;;;;2.59;86.34;101948.41;5072060;28;20271;-74
2022/02/02 20:30:35;;;;;;;14.67;3.53;;;;;;;2.50;85.37;101956.25;5072161;28;20212;-74
2022/02/02 20:33:01;;;;;;;15.77;3.63;;;;;;;2.40;85.69;101958.03;5072127;28;20646;-74
2022/02/02 20:35:26;;;;;;;15.40;3.67;;;;;;;2.34;85.23;101962.66;5053947;28;20196;-74
2022/02/02 20:37:52;;;;;;;14.33;3.43;;;;;;;2.25;85.67;101969.59;5070525;28;20674;-74
2022/02/02 20:40:17;;;;;;;16.40;3.83;;;;;;;2.16;85.95;101968.97;5071790;28;20201;-74
2022/02/02 21:14:09;;;;;;;14.63;5.80;;;;;;;1.97;87.69;101996.22;5071328;28;20673;-74
2022/02/02 21:16:38;;;;;;;14.90;5.53;;;;;;;1.93;88.07;101996.75;5071297;28;20185;-74
2022/02/02 21:19:07;;;;;;;17.93;5.77;;;;;;;2.02;88.61;102003.31;5069455;28;20208;-74
2022/02/02 21:21:49;;;;;;;24.33;5.53;;;;;;;2.02;88.92;101998.28;5071104;28;20197;-74
2022/02/02 21:27:17;;;;;;;21.17;4.97;;;;;;;1.98;88.68;101987.84;5070489;28;20184;-74
2022/02/02 21:29:42;;;;;;;16.80;4.73;;;;;;;1.83;89.06;101986.78;5070983;28;20243;-74
2022/02/02 21:32:09;;;;;;;17.77;4.57;;;;;;;1.81;88.18;101979.06;5071191;28;20212;-74
2022/02/02 21:34:34;;;;;;;14.43;4.20;;;;;;;1.74;88.36;101970.97;5070888;28;20200;-74
2022/02/02 21:37:04;;;;;;;13.97;3.97;;;;;;;1.66;88.68;101965.31;5070851;28;20181;-74